createdAt,value
2023-04-12T00:02:19.455Z,99778.41
2023-04-12T00:04:46.597Z,99782.25
2023-04-12T00:07:13.584Z,99767.13
2023-04-12T00:09:40.658Z,99774.53
2023-04-12T00:12:08.029Z,99778.69
2023-04-12T00:14:34.968Z,99781.22
2023-04-12T00:17:01.854Z,99782.09
2023-04-12T00:19:31.046Z,99781.75
2023-04-12T00:21:58.275Z,99794.03
2023-04-12T00:24:26.165Z,99799.75
2023-04-12T00:26:53.211Z,99796.97
2023-04-12T00:29:21.246Z,99784.19
2023-04-12T00:31:48.423Z,99782.22
2023-04-12T00:34:15.893Z,99775.25
2023-04-12T00:36:42.776Z,99765.94
2023-04-12T00:39:09.947Z,99763.56
2023-04-12T00:41:37.859Z,99759.41
2023-04-12T00:44:04.906Z,99751.75
2023-04-12T00:46:33.239Z,99748.66
2023-04-12T00:49:00.630Z,99737.38
2023-04-12T00:51:27.659Z,99735.97
2023-04-12T00:53:59.657Z,99734.47
2023-04-12T00:56:28.458Z,99729.75
2023-04-12T00:58:56.919Z,99729.75
2023-04-12T01:01:24.200Z,99719.94
2023-04-12T01:04:01.110Z,99723.09
2023-04-12T01:07:02.319Z,99712.81
2023-04-12T01:10:16.820Z,99708.34
2023-04-12T01:13:06.315Z,99712.19
2023-04-12T01:15:37.845Z,99706.41
2023-04-12T01:18:09.989Z,99701.03
2023-04-12T01:20:48.387Z,99695.88
2023-04-12T01:23:41.438Z,99692.53
2023-04-12T01:26:39.186Z,99682.25
2023-04-12T01:29:11.948Z,99676.41
2023-04-12T01:32:03.136Z,99671.13
2023-04-12T01:34:33.454Z,99670.97
2023-04-12T01:37:03.137Z,99663.81
2023-04-12T01:39:32.420Z,99662.09
2023-04-12T01:41:59.379Z,99652.38
2023-04-12T01:44:26.452Z,99650.34
2023-04-12T01:46:53.796Z,99650.13
2023-04-12T01:49:24.120Z,99634.56
2023-04-12T01:52:13.256Z,99629.50
2023-04-12T01:54:44.720Z,99624.13
2023-04-12T01:57:12.785Z,99626.00
2023-04-12T01:59:41.909Z,99612.38
2023-04-12T02:02:11.108Z,99614.50
2023-04-12T02:04:39.033Z,99610.53
2023-04-12T02:07:06.052Z,99606.94
2023-04-12T02:09:38.638Z,99605.84
2023-04-12T02:12:09.601Z,99601.38
2023-04-12T02:14:37.578Z,99603.94
2023-04-12T02:17:05.466Z,99598.69
2023-04-12T02:19:32.817Z,99587.91
2023-04-12T02:21:59.810Z,99578.66
2023-04-12T02:24:27.354Z,99568.25
2023-04-12T02:26:55.101Z,99574.50
2023-04-12T02:29:22.267Z,99567.88
2023-04-12T02:31:49.144Z,99565.03
2023-04-12T02:34:17.994Z,99561.28
2023-04-12T02:36:49.391Z,99557.63
2023-04-12T02:39:22.069Z,99548.16
2023-04-12T02:41:49.404Z,99542.34
2023-04-12T02:44:16.379Z,99532.91
2023-04-12T02:46:43.297Z,99535.78
2023-04-12T02:49:10.151Z,99519.25
2023-04-12T02:51:38.437Z,99515.00
2023-04-12T02:54:06.009Z,99503.31
2023-04-12T02:56:36.081Z,99493.34
2023-04-12T02:59:03.135Z,99484.34
2023-04-12T03:01:31.015Z,99486.63
2023-04-12T03:03:58.322Z,99480.94
2023-04-12T03:06:25.589Z,99482.41
2023-04-12T03:08:52.498Z,99466.81
2023-04-12T03:11:19.349Z,99467.09
2023-04-12T03:13:46.243Z,99458.94
2023-04-12T03:16:29.881Z,99459.75
2023-04-12T03:18:57.669Z,99465.81
2023-04-12T03:21:24.534Z,99458.09
2023-04-12T03:23:52.645Z,99450.25
2023-04-12T03:26:20.558Z,99439.53
2023-04-12T03:28:49.453Z,99435.97
2023-04-12T03:31:20.998Z,99431.53
2023-04-12T03:33:48.129Z,99414.72
2023-04-12T03:36:16.307Z,99414.03
2023-04-12T03:38:43.256Z,99405.44
2023-04-12T03:41:10.208Z,99402.88
2023-04-12T03:43:37.495Z,99403.53
2023-04-12T03:46:05.763Z,99406.44
2023-04-12T03:48:32.812Z,99394.19
2023-04-12T03:51:08.587Z,99390.84
2023-04-12T03:53:35.711Z,99394.59
2023-04-12T03:56:02.635Z,99385.00
2023-04-12T03:58:29.686Z,99367.88
2023-04-12T04:00:57.243Z,99361.47
2023-04-12T04:03:27.118Z,99371.03
2023-04-12T04:05:54.350Z,99370.03
2023-04-12T04:08:21.675Z,99369.91
2023-04-12T04:10:48.751Z,99366.22
2023-04-12T04:13:15.792Z,99356.34
2023-04-12T04:15:42.761Z,99353.22
2023-04-12T04:18:09.667Z,99345.78
2023-04-12T04:20:36.636Z,99357.09
2023-04-12T04:23:03.598Z,99344.13
2023-04-12T04:25:30.595Z,99345.88
2023-04-12T04:27:59.576Z,99336.78
2023-04-12T04:30:26.641Z,99332.75
2023-04-12T04:32:53.774Z,99324.88
2023-04-12T04:35:21.842Z,99316.56
2023-04-12T04:37:48.882Z,99321.41
2023-04-12T04:40:16.508Z,99311.69
2023-04-12T04:42:46.280Z,99328.19
2023-04-12T04:45:14.001Z,99309.41
2023-04-12T04:47:41.338Z,99312.63
2023-04-12T04:50:08.842Z,99314.22
2023-04-12T04:52:37.624Z,99303.84
2023-04-12T04:55:07.359Z,99309.91
2023-04-12T04:57:35.643Z,99302.94
2023-04-12T05:00:11.017Z,99315.38
2023-04-12T05:02:40.106Z,99301.97
2023-04-12T05:05:08.770Z,99303.19
2023-04-12T05:07:39.297Z,99298.22
2023-04-12T05:10:07.066Z,99278.28
2023-04-12T05:12:34.131Z,99282.25
2023-04-12T05:17:32.029Z,99277.00
2023-04-12T05:19:59.082Z,99275.38
2023-04-12T05:22:26.745Z,99271.91
2023-04-12T05:24:53.676Z,99260.06
2023-04-12T05:27:20.689Z,99236.72
2023-04-12T05:29:47.870Z,99240.63
2023-04-12T05:32:15.034Z,99241.78
2023-04-12T05:34:44.257Z,99221.50
2023-04-12T05:37:12.345Z,99214.97
2023-04-12T05:39:39.401Z,99203.00
2023-04-12T05:42:06.609Z,99196.03
2023-04-12T05:44:36.912Z,99198.47
2023-04-12T05:47:04.696Z,99193.59
2023-04-12T05:49:32.360Z,99201.25
2023-04-12T05:51:59.534Z,99194.72
2023-04-12T05:54:27.107Z,99193.28
2023-04-12T05:56:57.147Z,99185.50
2023-04-12T05:59:24.256Z,99183.22
2023-04-12T06:01:51.528Z,99171.25
2023-04-12T06:04:18.792Z,99170.75
2023-04-12T06:06:47.439Z,99175.13
2023-04-12T06:09:15.103Z,99169.44
2023-04-12T06:11:42.016Z,99167.03
2023-04-12T06:14:11.201Z,99150.78
2023-04-12T06:16:40.648Z,99153.22
2023-04-12T06:19:08.948Z,99146.91
2023-04-12T06:21:36.106Z,99144.16
2023-04-12T06:24:03.122Z,99133.06
2023-04-12T06:26:38.931Z,99128.69
2023-04-12T06:29:06.281Z,99125.97
2023-04-12T06:31:33.468Z,99122.84
2023-04-12T06:34:01.043Z,99123.16
2023-04-12T06:36:27.980Z,99116.41
2023-04-12T06:38:55.564Z,99116.88
2023-04-12T06:41:22.634Z,99113.41
2023-04-12T06:43:49.497Z,99103.72
2023-04-12T06:46:18.708Z,99119.78
2023-04-12T06:48:45.707Z,99113.47
2023-04-12T06:51:12.719Z,99110.56
2023-04-12T06:53:39.586Z,99094.00
2023-04-12T06:56:07.140Z,99098.66
2023-04-12T06:58:34.089Z,99083.78
2023-04-12T07:01:08.506Z,99076.88
2023-04-12T07:03:36.313Z,99068.66
2023-04-12T07:06:17.256Z,99058.78
2023-04-12T07:08:51.175Z,99051.69
2023-04-12T07:11:21.606Z,99052.44
2023-04-12T07:13:50.152Z,99056.66
2023-04-12T07:16:18.000Z,99043.38
2023-04-12T07:18:44.987Z,99040.34
2023-04-12T07:21:14.518Z,99040.84
2023-04-12T07:23:41.660Z,99029.84
2023-04-12T07:26:08.714Z,99031.53
2023-04-12T07:28:39.101Z,99020.09
2023-04-12T07:31:07.544Z,99000.53
2023-04-12T07:33:36.080Z,98996.47
2023-04-12T07:36:04.879Z,98992.25
2023-04-12T07:38:32.013Z,98995.94
2023-04-12T07:40:59.096Z,98985.28
2023-04-12T07:43:26.166Z,98988.41
2023-04-12T07:45:55.998Z,98977.66
2023-04-12T07:48:23.430Z,98997.31
2023-04-12T07:50:51.469Z,98978.00
2023-04-12T07:53:27.962Z,98978.56
2023-04-12T07:55:56.051Z,98970.56
2023-04-12T07:58:24.732Z,98968.50
2023-04-12T08:00:52.210Z,98973.53
2023-04-12T08:03:19.674Z,98966.09
2023-04-12T08:05:53.177Z,98977.47
2023-04-12T08:08:22.112Z,98964.28
2023-04-12T08:10:49.793Z,98958.06
2023-04-12T08:13:16.921Z,98962.81
2023-04-12T08:15:44.002Z,98955.97
2023-04-12T08:18:11.340Z,98940.88
2023-04-12T08:20:40.549Z,98946.53
2023-04-12T08:23:08.058Z,98941.44
2023-04-12T08:25:35.160Z,98939.25
2023-04-12T08:28:03.734Z,98940.13
2023-04-12T08:30:31.176Z,98946.34
2023-04-12T08:32:58.264Z,98934.56
2023-04-12T08:35:25.689Z,98958.81
2023-04-12T08:37:52.643Z,98938.28
2023-04-12T08:40:21.660Z,98950.41
2023-04-12T08:42:48.962Z,98942.75
2023-04-12T08:45:16.076Z,98937.88
2023-04-12T08:47:44.757Z,98935.63
2023-04-12T08:50:14.164Z,98945.06
2023-04-12T08:52:42.879Z,98938.94
2023-04-12T08:55:11.252Z,98939.00
2023-04-12T08:57:42.610Z,98933.13
2023-04-12T09:00:11.401Z,98926.53
2023-04-12T09:02:38.945Z,98922.19
2023-04-12T09:05:07.380Z,98932.88
2023-04-12T09:07:34.793Z,98914.84
2023-04-12T09:10:02.104Z,98922.94
2023-04-12T09:12:29.289Z,98918.19
2023-04-12T09:15:13.437Z,98915.94
2023-04-12T09:17:42.390Z,98905.31
2023-04-12T09:20:24.082Z,98886.66
2023-04-12T09:22:52.834Z,98890.91
2023-04-12T09:25:36.143Z,98883.72
2023-04-12T09:28:05.019Z,98900.50
2023-04-12T09:30:44.483Z,98895.28
2023-04-12T09:33:13.502Z,98897.25
2023-04-12T09:35:40.909Z,98896.28
2023-04-12T09:38:10.161Z,98892.53
2023-04-12T09:40:38.543Z,98884.16
2023-04-12T09:43:06.517Z,98876.28
2023-04-12T09:45:40.800Z,98861.25
2023-04-12T09:48:08.271Z,98857.03
2023-04-12T09:50:35.350Z,98864.44
2023-04-12T09:53:17.114Z,98859.63
2023-04-12T09:55:44.266Z,98865.19
2023-04-12T09:58:12.747Z,98870.09
2023-04-12T10:00:40.579Z,98875.69
2023-04-12T10:03:08.354Z,98862.59
2023-04-12T10:05:38.433Z,98852.09
2023-04-12T10:08:06.324Z,98852.88
2023-04-12T10:10:33.506Z,98834.06
2023-04-12T10:13:02.164Z,98833.91
2023-04-12T10:15:30.506Z,98837.91
2023-04-12T10:17:57.891Z,98832.69
2023-04-12T10:20:28.944Z,98830.69
2023-04-12T10:22:59.390Z,98837.72
2023-04-12T10:25:30.801Z,98820.31
2023-04-12T10:27:57.802Z,98825.13
2023-04-12T10:30:27.212Z,98820.38
2023-04-12T10:33:03.843Z,98827.81
2023-04-12T10:36:03.921Z,98822.44
2023-04-12T10:38:35.235Z,98809.41
2023-04-12T10:41:20.911Z,98816.31
2023-04-12T10:43:52.134Z,98803.91
2023-04-12T10:46:38.255Z,98808.09
2023-04-12T10:49:15.458Z,98808.34
2023-04-12T10:52:03.307Z,98792.00
2023-04-12T10:54:36.945Z,98799.31
2023-04-12T10:57:04.819Z,98799.41
2023-04-12T10:59:56.940Z,98782.34
2023-04-12T11:02:24.270Z,98782.78
2023-04-12T11:05:09.997Z,98784.75
2023-04-12T11:07:44.911Z,98784.53
2023-04-12T11:10:17.288Z,98788.69
2023-04-12T11:12:55.258Z,98778.00
2023-04-12T11:15:29.020Z,98781.22
2023-04-12T11:17:57.878Z,98779.38
2023-04-12T11:20:27.677Z,98780.81
2023-04-12T11:22:55.317Z,98769.56
2023-04-12T11:25:22.273Z,98771.53
2023-04-12T11:27:54.973Z,98766.97
2023-04-12T11:30:23.539Z,98764.75
2023-04-12T11:32:50.690Z,98778.44
2023-04-12T11:35:20.318Z,98763.97
2023-04-12T11:37:47.611Z,98757.94
2023-04-12T11:40:14.931Z,98748.66
2023-04-12T11:42:42.116Z,98763.91
2023-04-12T11:45:17.102Z,98759.88
2023-04-12T11:47:46.376Z,98753.06
2023-04-12T11:50:13.727Z,98756.69
2023-04-12T11:53:24.458Z,98749.94
2023-04-12T11:55:55.041Z,98740.75
2023-04-12T11:58:28.873Z,98742.34
2023-04-12T12:00:59.938Z,98729.31
2023-04-12T12:03:27.266Z,98742.16
2023-04-12T12:05:54.819Z,98731.72
2023-04-12T12:08:22.298Z,98737.75
2023-04-12T12:11:06.510Z,98737.13
2023-04-12T12:13:48.308Z,98731.88
2023-04-12T12:16:16.331Z,98739.66
2023-04-12T12:18:45.557Z,98742.25
2023-04-12T12:21:14.504Z,98731.78
2023-04-12T12:23:46.472Z,98730.59
2023-04-12T12:26:21.170Z,98726.97
2023-04-12T12:28:56.865Z,98731.03
2023-04-12T12:31:27.982Z,98715.38
2023-04-12T12:34:00.041Z,98713.41
2023-04-12T12:36:34.243Z,98704.00
2023-04-12T12:39:11.585Z,98704.78
2023-04-12T12:41:40.059Z,98710.41
2023-04-12T12:44:08.540Z,98692.34
2023-04-12T12:49:06.118Z,98691.31
2023-04-12T12:51:33.265Z,98681.69
2023-04-12T12:54:01.140Z,98678.09
2023-04-12T12:56:28.139Z,98674.88
2023-04-12T12:58:55.321Z,98680.09
2023-04-12T13:01:22.349Z,98687.72
2023-04-12T13:03:49.659Z,98679.91
2023-04-12T13:06:16.876Z,98692.16
2023-04-12T13:08:43.843Z,98686.31
2023-04-12T13:11:10.970Z,98704.19
2023-04-12T13:13:38.011Z,98709.63
2023-04-12T13:16:05.886Z,98711.84
2023-04-12T13:18:32.853Z,98734.69
2023-04-12T13:20:59.785Z,98733.03
2023-04-12T13:23:26.752Z,98722.41
2023-04-12T13:25:53.852Z,98722.72
2023-04-12T13:28:21.433Z,98721.34
2023-04-12T13:30:48.806Z,98719.72
2023-04-12T13:33:20.101Z,98725.06
2023-04-12T13:35:48.947Z,98736.50
2023-04-12T13:38:16.929Z,98713.63
2023-04-12T13:40:43.887Z,98720.06
2023-04-12T13:43:11.249Z,98706.22
2023-04-12T13:45:38.217Z,98697.34
2023-04-12T13:48:05.189Z,98707.63
2023-04-12T13:50:32.145Z,98713.25
2023-04-12T13:52:59.168Z,98734.91
2023-04-12T13:55:26.215Z,98748.00
2023-04-12T13:57:53.181Z,98738.53
2023-04-12T14:00:20.862Z,98744.13
2023-04-12T14:02:47.953Z,98763.13
2023-04-12T14:05:15.202Z,98807.88
2023-04-12T14:07:42.291Z,98811.97
2023-04-12T14:10:10.164Z,98792.00
2023-04-12T14:12:37.190Z,98776.72
2023-04-12T14:15:05.831Z,98764.00
2023-04-12T14:17:33.106Z,98767.22
2023-04-12T14:20:00.507Z,98755.22
2023-04-12T14:22:27.816Z,98743.81
2023-04-12T14:24:55.104Z,98745.31
2023-04-12T14:27:22.438Z,98751.91
2023-04-12T14:29:49.633Z,98748.72
2023-04-12T14:32:16.622Z,98748.94
2023-04-12T14:34:43.794Z,98750.84
2023-04-12T14:37:11.146Z,98756.47
2023-04-12T14:39:38.207Z,98762.38
2023-04-12T14:42:06.110Z,98763.03
2023-04-12T14:44:33.057Z,98770.13
2023-04-12T14:46:59.965Z,98783.13
2023-04-12T14:49:31.665Z,98782.50
2023-04-12T14:52:00.194Z,98759.25
2023-04-12T14:54:27.282Z,98777.84
2023-04-12T14:56:56.009Z,98767.28
2023-04-12T14:59:23.445Z,98761.28
2023-04-12T15:01:52.526Z,98755.34
2023-04-12T15:04:20.225Z,98776.00
2023-04-12T15:06:47.339Z,98779.59
2023-04-12T15:09:17.606Z,98784.41
2023-04-12T15:11:46.307Z,98784.00
2023-04-12T15:14:20.905Z,98796.78
2023-04-12T15:16:51.215Z,98795.66
2023-04-12T15:19:22.532Z,98801.66
2023-04-12T15:21:57.533Z,98806.47
2023-04-12T15:24:25.290Z,98802.09
2023-04-12T15:26:53.160Z,98790.97
2023-04-12T15:29:22.533Z,98782.81
2023-04-12T15:31:50.412Z,98785.25
2023-04-12T15:34:17.537Z,98785.66
2023-04-12T15:36:45.872Z,98786.09
2023-04-12T15:39:13.462Z,98793.38
2023-04-12T15:41:42.191Z,98790.56
2023-04-12T15:44:13.124Z,98780.34
2023-04-12T15:46:41.750Z,98776.91
2023-04-12T15:49:10.223Z,98793.78
2023-04-12T15:51:37.247Z,98787.38
2023-04-12T15:54:06.235Z,98790.59
2023-04-12T15:56:35.106Z,98794.41
2023-04-12T15:59:02.143Z,98799.06
2023-04-12T16:01:29.196Z,98800.47
2023-04-12T16:03:59.402Z,98805.50
2023-04-12T16:06:34.607Z,98792.81
2023-04-12T16:09:05.009Z,98779.97
2023-04-12T16:11:34.029Z,98775.56
2023-04-12T16:14:01.173Z,98756.84
2023-04-12T16:16:28.367Z,98746.19
2023-04-12T16:18:55.751Z,98746.41
2023-04-12T16:21:23.278Z,98750.22
2023-04-12T16:23:51.183Z,98732.94
2023-04-12T16:26:22.868Z,98742.56
2023-04-12T16:28:53.046Z,98740.19
2023-04-12T16:31:21.484Z,98748.22
2023-04-12T16:33:49.719Z,98779.38
2023-04-12T16:36:16.837Z,98769.31
2023-04-12T16:38:47.859Z,98751.66
2023-04-12T16:41:17.188Z,98744.41
2023-04-12T16:43:45.541Z,98755.25
2023-04-12T16:46:12.737Z,98754.44
2023-04-12T16:48:41.086Z,98760.66
2023-04-12T16:51:08.238Z,98762.69
2023-04-12T16:53:35.845Z,98770.13
2023-04-12T16:56:02.942Z,98776.94
2023-04-12T16:58:30.226Z,98773.34
2023-04-12T17:00:57.904Z,98775.75
2023-04-12T17:03:25.481Z,98789.00
2023-04-12T17:05:53.104Z,98790.44
2023-04-12T17:08:20.096Z,98805.91
2023-04-12T17:10:47.006Z,98824.75
2023-04-12T17:13:18.647Z,98827.56
2023-04-12T17:15:48.245Z,98822.31
2023-04-12T17:18:15.802Z,98832.53
2023-04-12T17:20:43.359Z,98825.31
2023-04-12T17:23:10.695Z,98832.81
2023-04-12T17:25:38.310Z,98838.03
2023-04-12T17:28:05.641Z,98846.88
2023-04-12T17:30:33.080Z,98830.63
2023-04-12T17:33:01.686Z,98828.66
2023-04-12T17:35:29.395Z,98827.72
2023-04-12T17:37:56.725Z,98826.53
2023-04-12T17:40:23.746Z,98819.19
2023-04-12T17:42:50.973Z,98817.38
2023-04-12T17:45:19.288Z,98811.34
2023-04-12T17:47:46.271Z,98818.69
2023-04-12T17:50:14.692Z,98809.81
2023-04-12T17:52:42.378Z,98807.97
2023-04-12T17:55:10.336Z,98803.38
2023-04-12T17:57:37.519Z,98798.94
2023-04-12T18:00:09.447Z,98808.78
2023-04-12T18:02:36.946Z,98802.91
2023-04-12T18:05:04.881Z,98798.47
2023-04-12T18:07:32.330Z,98801.94
2023-04-12T18:09:59.336Z,98806.22
2023-04-12T18:12:26.318Z,98809.91
2023-04-12T18:14:53.468Z,98799.50
2023-04-12T18:17:20.717Z,98800.00
2023-04-12T18:19:47.817Z,98820.09
2023-04-12T18:22:14.804Z,98825.81
2023-04-12T18:24:43.264Z,98830.38
2023-04-12T18:27:10.213Z,98847.09
2023-04-12T18:29:37.262Z,98855.72
2023-04-12T18:32:04.223Z,98859.97
2023-04-12T18:34:31.305Z,98862.59
2023-04-12T18:36:59.802Z,98864.56
2023-04-12T18:39:27.030Z,98873.91
2023-04-12T18:41:54.297Z,98879.94
2023-04-12T18:44:21.318Z,98882.72
2023-04-12T18:46:49.395Z,98884.88
2023-04-12T18:49:16.935Z,98893.28
2023-04-12T18:51:44.167Z,98889.19
2023-04-12T18:54:13.775Z,98892.88
2023-04-12T18:56:43.828Z,98903.63
2023-04-12T18:59:17.282Z,98909.47
2023-04-12T19:01:47.307Z,98927.69
2023-04-12T19:04:16.476Z,98940.44
2023-04-12T19:06:44.673Z,98947.16
2023-04-12T19:09:11.771Z,98955.94
2023-04-12T19:11:38.693Z,98966.44
2023-04-12T19:14:05.849Z,98987.16
2023-04-12T19:16:32.920Z,98983.50
2023-04-12T19:19:00.340Z,98985.16
2023-04-12T19:21:31.985Z,98984.47
2023-04-12T19:23:59.392Z,98985.91
2023-04-12T19:26:28.511Z,98984.47
2023-04-12T19:28:58.222Z,98985.91
2023-04-12T19:31:26.191Z,98987.53
2023-04-12T19:33:55.557Z,98997.13
2023-04-12T19:36:24.489Z,98991.59
2023-04-12T19:38:52.194Z,98985.66
2023-04-12T19:41:20.428Z,98983.53
2023-04-12T19:43:47.745Z,98987.75
2023-04-12T19:46:15.271Z,98965.75
2023-04-12T19:48:42.784Z,98970.50
2023-04-12T19:51:09.956Z,98976.66
2023-04-12T19:53:36.887Z,98985.97
2023-04-12T19:56:07.899Z,98986.13
2023-04-12T19:58:34.866Z,98989.44
2023-04-12T20:01:02.733Z,99002.94
2023-04-12T20:03:30.418Z,99011.56
2023-04-12T20:06:03.724Z,99018.31
2023-04-12T20:08:31.110Z,99026.66
2023-04-12T20:10:58.102Z,99020.41
2023-04-12T20:13:25.329Z,99025.19
2023-04-12T20:15:52.653Z,99012.22
2023-04-12T20:18:19.546Z,99021.00
2023-04-12T20:20:48.389Z,99034.84
2023-04-12T20:23:15.604Z,99043.41
2023-04-12T20:25:42.672Z,99046.22
2023-04-12T20:28:10.092Z,99051.59
2023-04-12T20:30:37.248Z,99056.03
2023-04-12T20:33:04.395Z,99054.91
2023-04-12T20:35:32.005Z,99066.56
2023-04-12T20:38:00.132Z,99060.41
2023-04-12T20:40:29.755Z,99066.91
2023-04-12T20:42:57.095Z,99070.06
2023-04-12T20:45:24.416Z,99081.44
2023-04-12T20:47:52.006Z,99095.91
2023-04-12T20:50:23.034Z,99099.78
2023-04-12T20:52:52.302Z,99104.81
2023-04-12T20:55:19.595Z,99103.03
2023-04-12T20:57:46.704Z,99106.59
2023-04-12T21:00:18.856Z,99106.28
2023-04-12T21:02:46.850Z,99090.19
2023-04-12T21:05:17.205Z,99089.69
2023-04-12T21:07:46.547Z,99099.75
2023-04-12T21:10:14.862Z,99098.13
2023-04-12T21:12:42.699Z,99092.78
2023-04-12T21:15:12.024Z,99098.81
2023-04-12T21:17:40.483Z,99103.66
2023-04-12T21:20:14.415Z,99102.91
2023-04-12T21:22:43.368Z,99109.88
2023-04-12T21:25:13.568Z,99103.72
2023-04-12T21:27:42.562Z,99114.94
2023-04-12T21:30:13.675Z,99117.53
2023-04-12T21:32:41.991Z,99111.88
2023-04-12T21:35:11.025Z,99119.34
2023-04-12T21:37:39.332Z,99132.66
2023-04-12T21:40:09.447Z,99135.75
2023-04-12T21:42:38.194Z,99134.59
2023-04-12T21:45:09.779Z,99147.25
2023-04-12T21:47:39.855Z,99144.63
2023-04-12T21:50:09.178Z,99144.50
2023-04-12T21:52:36.861Z,99141.41
2023-04-12T21:55:05.025Z,99142.38
2023-04-12T21:57:33.412Z,99144.31
2023-04-12T22:00:01.543Z,99139.16
2023-04-12T22:02:28.747Z,99141.09
2023-04-12T22:04:55.797Z,99144.47
2023-04-12T22:07:22.857Z,99141.91
2023-04-12T22:09:53.507Z,99148.50
2023-04-12T22:12:21.241Z,99142.69
2023-04-12T22:14:49.735Z,99136.22
2023-04-12T22:17:18.854Z,99153.88
2023-04-12T22:19:46.213Z,99148.22
2023-04-12T22:22:16.817Z,99160.22
2023-04-12T22:24:44.204Z,99152.06
2023-04-12T22:27:11.201Z,99151.13
2023-04-12T22:29:38.383Z,99149.63
2023-04-12T22:32:05.408Z,99151.56
2023-04-12T22:34:32.514Z,99141.38
2023-04-12T22:36:59.445Z,99131.16
2023-04-12T22:39:26.960Z,99135.38
2023-04-12T22:41:57.261Z,99126.97
2023-04-12T22:44:26.013Z,99123.25
2023-04-12T22:46:55.153Z,99127.75
2023-04-12T22:49:28.312Z,99120.63
2023-04-12T22:51:55.876Z,99124.03
2023-04-12T22:54:24.932Z,99118.22
2023-04-12T22:56:52.502Z,99117.03
2023-04-12T22:59:22.343Z,99108.31
2023-04-12T23:01:49.376Z,99113.97
2023-04-12T23:04:16.960Z,99115.09
2023-04-12T23:06:44.580Z,99112.50
2023-04-12T23:09:13.026Z,99108.28
2023-04-12T23:11:41.055Z,99102.97
2023-04-12T23:14:09.592Z,99103.13
2023-04-12T23:16:47.484Z,99107.69
2023-04-12T23:19:14.743Z,99099.88
2023-04-12T23:21:42.159Z,99108.81
2023-04-12T23:24:11.765Z,99102.50
2023-04-12T23:26:38.701Z,99101.16
2023-04-12T23:29:05.635Z,99101.31
2023-04-12T23:31:32.679Z,99099.84
2023-04-12T23:34:03.525Z,99100.34
2023-04-12T23:36:30.685Z,99098.97
2023-04-12T23:39:04.224Z,99106.91
2023-04-12T23:41:32.018Z,99108.84
2023-04-12T23:44:00.002Z,99100.09
2023-04-12T23:46:27.938Z,99102.13
2023-04-12T23:48:55.125Z,99100.75
2023-04-12T23:51:22.593Z,99104.63
2023-04-12T23:53:50.262Z,99099.47
2023-04-12T23:56:17.314Z,99088.47
2023-04-12T23:58:44.280Z,99096.59
